ENAL/AES METAR and TAF weather

Enter ICAO airport designator
Station Type Date Time Source
ENAL METAR 2020/07/10 20:20 UTC NOAA

ENAL 102020Z 23011KT 9999 FEW017 SCT022 BKN036 12/08 Q1009


Station Type Date Time Source
ENAL Decoded METAR 2020/07/10 20:20 UTC NOAA

Alesund / Vigra, Norway (ENAL) 62-34N 006-07E 22M
Jul 10, 2020 - 04:20 PM EDT / 2020.07.10 2020 UTC
Wind: from the SW (230 degrees) at 13 MPH (11 KT):0
Visibility: greater than 7 mile(s):0
Sky conditions: mostly cloudy
Temperature: 53 F (12 C)
Dew Point: 46 F (8 C)
Relative Humidity: 76%
Pressure (altimeter): 29.80 in. Hg (1009 hPa)
ob: ENAL 102020Z 23011KT 9999 FEW017 SCT022 BKN036 12/08 Q1009
cycle: 20

Station Type Date Time Source
ENAL TAF UTC NOAA

Error!

Example: see airport list